Time;durP1;ratioP1;P1;durP2;ratioP2;P2;SDS_P1;SDS_P2;PMS_P1;PMS_P2;Temp;Humidity;BMP_temperature;BMP_pressure;BME280_temperature;BME280_humidity;BME280_pressure;Samples;Min_cycle;Max_cycle;Signal;HPM_P1;HPM_P2
2021/12/01 00:01:37;;;;;;;;;;;;;;;;;;110832;1276;8750;-72
2021/12/01 00:04:06;;;;;;;;;;;;;;;;;;110940;1276;9254;-74
2021/12/01 00:06:35;;;;;;;;;;;;;;;;;;110782;1275;9717;-73
2021/12/01 00:09:03;;;;;;;;;;;;;;;;;;110920;1275;8369;-74
2021/12/01 00:11:32;;;;;;;;;;;;;;;;;;110959;1276;9253;-78
2021/12/01 00:14:00;;;;;;;;;;;;;;;;;;110895;1276;8368;-72
2021/12/01 00:16:27;;;;;;;;;;;;;;;;;;110793;1277;8794;-72
2021/12/01 00:18:55;;;;;;;;;;;;;;;;;;110943;1275;8025;-73
2021/12/01 00:21:23;;;;;;;;;;;;;;;;;;110940;1273;8069;-74
2021/12/01 00:23:52;;;;;;;;;;;;;;;;;;110845;1276;8787;-72
2021/12/01 00:26:20;;;;;;;;;;;;;;;;;;110805;1277;9687;-73
2021/12/01 00:28:48;;;;;;;;;;;;;;;;;;110794;1277;8372;-72
2021/12/01 00:31:16;;;;;;;;;;;;;;;;;;110894;1274;8797;-74
2021/12/01 00:33:44;;;;;;;;;;;;;;;;;;110952;1275;7976;-73
2021/12/01 00:36:14;;;;;;;;;;;;;;;;;;110808;1276;8794;-73
2021/12/01 00:38:43;;;;;;;;;;;;;;;;;;110968;1274;8993;-73
2021/12/01 00:41:12;;;;;;;;;;;;;;;;;;110907;1275;9702;-74
2021/12/01 00:43:41;;;;;;;;;;;;;;;;;;110792;1275;7964;-74
2021/12/01 00:46:14;;;;;;;;;;;;;;;;;;110835;1276;9781;-74
2021/12/01 00:48:42;;;;;;;;;;;;;;;;;;110585;1277;9701;-74
2021/12/01 00:51:10;;;;;;;;;;;;;;;;;;110815;1275;7963;-75
2021/12/01 00:53:38;;;;;;;;;;;;;;;;;;110822;1275;8747;-74
2021/12/01 00:56:06;;;;;;;;;;;;;;;;;;110915;1276;8018;-74
2021/12/01 00:58:34;;;;;;;;;;;;;;;;;;110811;1277;9698;-73
2021/12/01 01:01:03;;;;;;;;;;;;;;;;;;110900;1276;9066;-77
2021/12/01 01:03:32;;;;;;;;;;;;;;;;;;110814;1274;7960;-73
2021/12/01 01:06:00;;;;;;;;;;;;;;;;;;110976;1275;7983;-74
2021/12/01 01:08:28;;;;;;;;;;;;;;;;;;110858;1276;9697;-74
2021/12/01 01:16:22;;;;;;;;;;;;;;;;;;110952;1275;8004;-73
2021/12/01 01:18:56;;;;;;;;;;;;;;;;;;110932;1274;10138;-74
2021/12/01 01:21:27;;;;;;;;;;;;;;;;;;110869;1276;8966;-74
2021/12/01 01:23:55;;;;;;;;;;;;;;;;;;110758;1277;7980;-74
2021/12/01 01:26:24;;;;;;;;;;;;;;;;;;110849;1276;8794;-74
2021/12/01 01:28:52;;;;;;;;;;;;;;;;;;110993;1276;9706;-74
2021/12/01 01:31:20;;;;;;;;;;;;;;;;;;110943;1274;8785;-74
2021/12/01 01:33:50;;;;;;;;;;;;;;;;;;110863;1276;8381;-74
2021/12/01 01:36:18;;;;;;;;;;;;;;;;;;110783;1277;8791;-73
2021/12/01 01:38:46;;;;;;;;;;;;;;;;;;110827;1276;9687;-73
2021/12/01 01:41:15;;;;;;;;;;;;;;;;;;110934;1276;8024;-73
2021/12/01 01:43:45;;;;;;;;;;;;;;;;;;110990;1275;8784;-73
2021/12/01 01:46:14;;;;;;;;;;;;;;;;;;110524;1276;8009;-73
2021/12/01 01:48:48;;;;;;;;;;;;;;;;;;110466;1278;8941;-74
2021/12/01 01:51:19;;;;;;;;;;;;;;;;;;110573;1277;8154;-74
2021/12/01 01:53:48;;;;;;;;;;;;;;;;;;110501;1277;7980;-74
2021/12/01 01:56:17;;;;;;;;;;;;;;;;;;110913;1274;8963;-74
2021/12/01 01:58:46;;;;;;;;;;;;;;;;;;110791;1275;8818;-74
2021/12/01 02:04:02;;;;;;;;;;;;;;;;;;110805;1276;9682;-73
2021/12/01 02:06:31;;;;;;;;;;;;;;;;;;110965;1276;8031;-73
2021/12/01 02:08:59;;;;;;;;;;;;;;;;;;110971;1276;10118;-73
2021/12/01 02:11:29;;;;;;;;;;;;;;;;;;110971;1274;8346;-73
2021/12/01 02:13:57;;;;;;;;;;;;;;;;;;110864;1275;8011;-73
2021/12/01 02:16:25;;;;;;;;;;;;;;;;;;110864;1275;9724;-73
2021/12/01 02:18:54;;;;;;;;;;;;;;;;;;110949;1276;8952;-74
2021/12/01 02:21:29;;;;;;;;;;;;;;;;;;110512;1276;7967;-73
2021/12/01 02:23:59;;;;;;;;;;;;;;;;;;110472;1278;9791;-73
2021/12/01 02:26:29;;;;;;;;;;;;;;;;;;110732;1276;8807;-73
2021/12/01 02:29:00;;;;;;;;;;;;;;;;;;110477;1278;8021;-73
2021/12/01 02:31:35;;;;;;;;;;;;;;;;;;110948;1276;8825;-74
2021/12/01 02:34:05;;;;;;;;;;;;;;;;;;110940;1274;9728;-75
2021/12/01 02:36:34;;;;;;;;;;;;;;;;;;110395;1277;7976;-73
2021/12/01 02:39:05;;;;;;;;;;;;;;;;;;110978;1274;9687;-73
2021/12/01 02:41:35;;;;;;;;;;;;;;;;;;110943;1274;8783;-74
2021/12/01 02:44:05;;;;;;;;;;;;;;;;;;110464;1276;7985;-74
2021/12/01 02:46:34;;;;;;;;;;;;;;;;;;110955;1275;9698;-73
2021/12/01 02:49:06;;;;;;;;;;;;;;;;;;110793;1277;9700;-74
2021/12/01 02:51:36;;;;;;;;;;;;;;;;;;110914;1274;7954;-75
2021/12/01 02:54:05;;;;;;;;;;;;;;;;;;110782;1275;9687;-73
2021/12/01 02:56:34;;;;;;;;;;;;;;;;;;110521;1276;10055;-75
2021/12/01 02:59:06;;;;;;;;;;;;;;;;;;110967;1274;8876;-72
2021/12/01 03:01:33;;;;;;;;;;;;;;;;;;110373;1278;9690;-72
2021/12/01 03:04:02;;;;;;;;;;;;;;;;;;110848;1275;7964;-73
2021/12/01 03:06:31;;;;;;;;;;;;;;;;;;110947;1274;8967;-73
2021/12/01 03:09:00;;;;;;;;;;;;;;;;;;110941;1275;9706;-73
2021/12/01 03:11:28;;;;;;;;;;;;;;;;;;110927;1276;8362;-73
2021/12/01 03:13:56;;;;;;;;;;;;;;;;;;110956;1276;8773;-73
2021/12/01 03:16:24;;;;;;;;;;;;;;;;;;110962;1274;9680;-73
2021/12/01 03:18:52;;;;;;;;;;;;;;;;;;110887;1274;8807;-73
2021/12/01 03:21:20;;;;;;;;;;;;;;;;;;110799;1276;8115;-73
2021/12/01 03:23:48;;;;;;;;;;;;;;;;;;110940;1275;9696;-73
2021/12/01 03:26:16;;;;;;;;;;;;;;;;;;110946;1275;8773;-73
2021/12/01 03:28:44;;;;;;;;;;;;;;;;;;110959;1276;9702;-74
2021/12/01 03:31:12;;;;;;;;;;;;;;;;;;110431;1277;9715;-73
2021/12/01 03:33:40;;;;;;;;;;;;;;;;;;110964;1274;8375;-73
2021/12/01 03:36:07;;;;;;;;;;;;;;;;;;110952;1276;10005;-73
2021/12/01 03:38:35;;;;;;;;;;;;;;;;;;110863;1276;9729;-73
2021/12/01 03:41:03;;;;;;;;;;;;;;;;;;110956;1274;8788;-74
2021/12/01 03:43:31;;;;;;;;;;;;;;;;;;110974;1274;9698;-74
2021/12/01 03:46:02;;;;;;;;;;;;;;;;;;110970;1276;9713;-74
2021/12/01 03:48:30;;;;;;;;;;;;;;;;;;110939;1274;8008;-73
2021/12/01 03:50:59;;;;;;;;;;;;;;;;;;110905;1275;9751;-73
2021/12/01 03:53:27;;;;;;;;;;;;;;;;;;110949;1276;8892;-75
2021/12/01 03:55:55;;;;;;;;;;;;;;;;;;110987;1274;7998;-74
2021/12/01 03:58:23;;;;;;;;;;;;;;;;;;110974;1274;9688;-74
2021/12/01 04:00:51;;;;;;;;;;;;;;;;;;110940;1275;8149;-74
2021/12/01 04:03:19;;;;;;;;;;;;;;;;;;110958;1274;8782;-74
2021/12/01 04:05:47;;;;;;;;;;;;;;;;;;110786;1277;9708;-73
2021/12/01 04:08:15;;;;;;;;;;;;;;;;;;110800;1277;8364;-73
2021/12/01 04:10:43;;;;;;;;;;;;;;;;;;110778;1277;8012;-73
2021/12/01 04:13:10;;;;;;;;;;;;;;;;;;110908;1274;8784;-73
2021/12/01 04:15:39;;;;;;;;;;;;;;;;;;110977;1274;9717;-74
2021/12/01 04:18:07;;;;;;;;;;;;;;;;;;110807;1276;8002;-72
2021/12/01 04:20:34;;;;;;;;;;;;;;;;;;110979;1276;9709;-74
2021/12/01 04:23:02;;;;;;;;;;;;;;;;;;110928;1276;9690;-75
2021/12/01 04:25:30;;;;;;;;;;;;;;;;;;110975;1276;8363;-72
2021/12/01 04:27:58;;;;;;;;;;;;;;;;;;110929;1276;10124;-74
2021/12/01 04:30:26;;;;;;;;;;;;;;;;;;110945;1274;9771;-74
2021/12/01 04:32:56;;;;;;;;;;;;;;;;;;110993;1274;8827;-74
2021/12/01 04:35:26;;;;;;;;;;;;;;;;;;110953;1276;8360;-74
2021/12/01 04:37:55;;;;;;;;;;;;;;;;;;110956;1275;8808;-73
2021/12/01 04:40:24;;;;;;;;;;;;;;;;;;110395;1276;715317;-75
2021/12/01 04:42:52;;;;;;;;;;;;;;;;;;110810;1277;7976;-74
2021/12/01 04:45:22;;;;;;;;;;;;;;;;;;110950;1274;9694;-74
2021/12/01 04:47:51;;;;;;;;;;;;;;;;;;110829;1276;9702;-74
2021/12/01 04:50:22;;;;;;;;;;;;;;;;;;110944;1274;7974;-73
2021/12/01 04:52:51;;;;;;;;;;;;;;;;;;110811;1274;8785;-74
2021/12/01 04:55:19;;;;;;;;;;;;;;;;;;110798;1275;9682;-74
2021/12/01 04:57:48;;;;;;;;;;;;;;;;;;110784;1275;8373;-74
2021/12/01 05:00:19;;;;;;;;;;;;;;;;;;110798;1275;8784;-73
2021/12/01 05:02:47;;;;;;;;;;;;;;;;;;110804;1277;9689;-73
2021/12/01 05:05:15;;;;;;;;;;;;;;;;;;110816;1276;7964;-72
2021/12/01 05:07:44;;;;;;;;;;;;;;;;;;110936;1274;8893;-73
2021/12/01 05:10:12;;;;;;;;;;;;;;;;;;110955;1274;8360;-73
2021/12/01 05:12:40;;;;;;;;;;;;;;;;;;110826;1276;9745;-73
2021/12/01 05:15:08;;;;;;;;;;;;;;;;;;110835;1276;8014;-73
2021/12/01 05:17:36;;;;;;;;;;;;;;;;;;110957;1276;9807;-73
2021/12/01 05:20:08;;;;;;;;;;;;;;;;;;110972;1275;7968;-73
2021/12/01 05:22:38;;;;;;;;;;;;;;;;;;110549;1276;8834;-73
2021/12/01 05:25:06;;;;;;;;;;;;;;;;;;110874;1274;9686;-73
2021/12/01 05:27:34;;;;;;;;;;;;;;;;;;110789;1276;7959;-73
2021/12/01 05:30:02;;;;;;;;;;;;;;;;;;110928;1274;9043;-72
2021/12/01 05:32:31;;;;;;;;;;;;;;;;;;110951;1276;8004;-73
2021/12/01 05:34:59;;;;;;;;;;;;;;;;;;110511;1273;9690;-73
2021/12/01 05:37:27;;;;;;;;;;;;;;;;;;110955;1275;8974;-73
2021/12/01 05:39:56;;;;;;;;;;;;;;;;;;110907;1275;8360;-74
2021/12/01 05:42:23;;;;;;;;;;;;;;;;;;110796;1277;8771;-74
2021/12/01 05:44:51;;;;;;;;;;;;;;;;;;110794;1277;7970;-74
2021/12/01 05:47:19;;;;;;;;;;;;;;;;;;110980;1275;8007;-75
2021/12/01 05:49:47;;;;;;;;;;;;;;;;;;110776;1276;9699;-74
2021/12/01 05:52:16;;;;;;;;;;;;;;;;;;110950;1274;9709;-75
2021/12/01 05:54:50;;;;;;;;;;;;;;;;;;110931;1275;8360;-76
2021/12/01 05:57:24;;;;;;;;;;;;;;;;;;110951;1275;9700;-74
2021/12/01 05:59:52;;;;;;;;;;;;;;;;;;110810;1276;8380;-75
2021/12/01 06:02:20;;;;;;;;;;;;;;;;;;110924;1274;8939;-75
2021/12/01 06:04:48;;;;;;;;;;;;;;;;;;110938;1276;9790;-75
2021/12/01 06:07:16;;;;;;;;;;;;;;;;;;110796;1274;8365;-74
2021/12/01 06:09:44;;;;;;;;;;;;;;;;;;110946;1274;9687;-76
2021/12/01 06:12:13;;;;;;;;;;;;;;;;;;110905;1275;7994;-75
2021/12/01 06:14:41;;;;;;;;;;;;;;;;;;110520;1277;8961;-76
2021/12/01 06:17:10;;;;;;;;;;;;;;;;;;110950;1274;9701;-77
2021/12/01 06:19:39;;;;;;;;;;;;;;;;;;110957;1276;9702;-77
2021/12/01 06:22:07;;;;;;;;;;;;;;;;;;110940;1274;9058;-77
2021/12/01 06:24:36;;;;;;;;;;;;;;;;;;110936;1274;8027;-74
2021/12/01 06:27:04;;;;;;;;;;;;;;;;;;110839;1276;8784;-75
2021/12/01 06:29:33;;;;;;;;;;;;;;;;;;110943;1275;9709;-72
2021/12/01 06:32:00;;;;;;;;;;;;;;;;;;110962;1274;9687;-73
2021/12/01 06:34:29;;;;;;;;;;;;;;;;;;110940;1274;8784;-75
2021/12/01 06:36:56;;;;;;;;;;;;;;;;;;110963;1276;7944;-71
2021/12/01 06:39:24;;;;;;;;;;;;;;;;;;110960;1276;9690;-72
2021/12/01 06:41:54;;;;;;;;;;;;;;;;;;110937;1275;8360;-74
2021/12/01 06:44:24;;;;;;;;;;;;;;;;;;110777;1277;8312;-76
2021/12/01 06:46:54;;;;;;;;;;;;;;;;;;110783;1277;8803;-76
2021/12/01 06:49:22;;;;;;;;;;;;;;;;;;110797;1276;9693;-75
2021/12/01 06:51:50;;;;;;;;;;;;;;;;;;110917;1276;8167;-77
2021/12/01 06:54:19;;;;;;;;;;;;;;;;;;110501;1277;8810;-73
2021/12/01 06:56:47;;;;;;;;;;;;;;;;;;110902;1274;7982;-73
2021/12/01 06:59:14;;;;;;;;;;;;;;;;;;110972;1276;8749;-74
2021/12/01 07:01:42;;;;;;;;;;;;;;;;;;110940;1275;9717;-72
2021/12/01 07:04:12;;;;;;;;;;;;;;;;;;110922;1276;8009;-73
2021/12/01 07:06:41;;;;;;;;;;;;;;;;;;110654;1276;8929;-76
2021/12/01 07:09:11;;;;;;;;;;;;;;;;;;110828;1276;9779;-76
2021/12/01 07:11:39;;;;;;;;;;;;;;;;;;110944;1274;8425;-76
2021/12/01 07:14:07;;;;;;;;;;;;;;;;;;110301;1276;9542;-76
2021/12/01 07:16:35;;;;;;;;;;;;;;;;;;110459;1276;9704;-73
2021/12/01 07:19:03;;;;;;;;;;;;;;;;;;110461;1276;7995;-78
2021/12/01 07:21:31;;;;;;;;;;;;;;;;;;110803;1277;8124;-76
2021/12/01 07:23:59;;;;;;;;;;;;;;;;;;110802;1276;8772;-77
2021/12/01 07:26:27;;;;;;;;;;;;;;;;;;110989;1274;9304;-75
2021/12/01 07:28:55;;;;;;;;;;;;;;;;;;110982;1275;7949;-76
2021/12/01 07:31:22;;;;;;;;;;;;;;;;;;110954;1276;8948;-76
2021/12/01 07:33:51;;;;;;;;;;;;;;;;;;110891;1275;9427;-77
2021/12/01 07:36:19;;;;;;;;;;;;;;;;;;110283;1276;8008;-75
2021/12/01 07:38:50;;;;;;;;;;;;;;;;;;110952;1275;8923;-76
2021/12/01 07:41:18;;;;;;;;;;;;;;;;;;110484;1274;8000;-77
2021/12/01 07:43:49;;;;;;;;;;;;;;;;;;110477;1279;9707;-76
2021/12/01 07:46:17;;;;;;;;;;;;;;;;;;110501;1276;8957;-75
2021/12/01 07:48:45;;;;;;;;;;;;;;;;;;110446;1278;8012;-76
2021/12/01 07:51:14;;;;;;;;;;;;;;;;;;110489;1278;9690;-75
2021/12/01 07:53:43;;;;;;;;;;;;;;;;;;110792;1277;7976;-75
2021/12/01 07:56:12;;;;;;;;;;;;;;;;;;110393;1278;8942;-74
2021/12/01 07:58:40;;;;;;;;;;;;;;;;;;110954;1274;9495;-72
2021/12/01 08:01:07;;;;;;;;;;;;;;;;;;110922;1274;8375;-73
2021/12/01 08:03:35;;;;;;;;;;;;;;;;;;110970;1272;9690;-74
2021/12/01 08:06:03;;;;;;;;;;;;;;;;;;110977;1276;7979;-74
2021/12/01 08:08:31;;;;;;;;;;;;;;;;;;110465;1278;9691;-74
2021/12/01 08:10:59;;;;;;;;;;;;;;;;;;110477;1276;8926;-73
2021/12/01 08:13:27;;;;;;;;;;;;;;;;;;110502;1277;8030;-73
2021/12/01 08:15:56;;;;;;;;;;;;;;;;;;110404;1277;8401;-75
2021/12/01 08:18:23;;;;;;;;;;;;;;;;;;110218;1279;9701;-75
2021/12/01 08:21:04;;;;;;;;;;;;;;;;;;110749;1275;8771;-76
2021/12/01 08:23:36;;;;;;;;;;;;;;;;;;110504;1278;8376;-74
2021/12/01 08:26:34;;;;;;;;;;;;;;;;;;110473;1278;8119;-77
2021/12/01 08:29:04;;;;;;;;;;;;;;;;;;110450;1280;8774;-75
2021/12/01 08:31:44;;;;;;;;;;;;;;;;;;110206;1278;9708;-77
2021/12/01 08:34:44;;;;;;;;;;;;;;;;;;110332;1280;8102;-77
2021/12/01 08:37:34;;;;;;;;;;;;;;;;;;110311;1280;9023;-75
2021/12/01 08:40:03;;;;;;;;;;;;;;;;;;110184;1278;7984;-75
2021/12/01 08:42:31;;;;;;;;;;;;;;;;;;110443;1281;9693;-75
2021/12/01 08:44:59;;;;;;;;;;;;;;;;;;110166;1280;7965;-75
2021/12/01 08:47:37;;;;;;;;;;;;;;;;;;110190;1280;9804;-76
2021/12/01 08:50:19;;;;;;;;;;;;;;;;;;110492;1280;8380;-75
2021/12/01 08:52:48;;;;;;;;;;;;;;;;;;110438;1282;8780;-74
2021/12/01 08:55:17;;;;;;;;;;;;;;;;;;110422;1281;9700;-74
2021/12/01 08:58:08;;;;;;;;;;;;;;;;;;110462;1280;8778;-75
2021/12/01 09:00:48;;;;;;;;;;;;;;;;;;110502;1282;8131;-77
2021/12/01 09:03:18;;;;;;;;;;;;;;;;;;110478;1281;8785;-74
2021/12/01 09:05:52;;;;;;;;;;;;;;;;;;110418;1282;9721;-75
2021/12/01 09:08:22;;;;;;;;;;;;;;;;;;110380;1281;9788;-75
2021/12/01 09:11:17;;;;;;;;;;;;;;;;;;110557;1281;8808;-75
2021/12/01 09:14:09;;;;;;;;;;;;;;;;;;110402;1279;9717;-76
2021/12/01 09:16:47;;;;;;;;;;;;;;;;;;110211;1277;8122;-76
2021/12/01 09:19:29;;;;;;;;;;;;;;;;;;110231;1279;8198;-76
2021/12/01 09:22:04;;;;;;;;;;;;;;;;;;110453;1278;9048;-76
2021/12/01 09:24:35;;;;;;;;;;;;;;;;;;110186;1278;8133;-76
2021/12/01 09:27:09;;;;;;;;;;;;;;;;;;110336;1278;8957;-76
2021/12/01 09:29:45;;;;;;;;;;;;;;;;;;110440;1278;9708;-76
2021/12/01 09:32:14;;;;;;;;;;;;;;;;;;110216;1279;8048;-76
2021/12/01 09:34:44;;;;;;;;;;;;;;;;;;110524;1274;9716;-75
2021/12/01 09:37:11;;;;;;;;;;;;;;;;;;110478;1277;8939;-75
2021/12/01 09:39:40;;;;;;;;;;;;;;;;;;110657;1276;8306;-76
2021/12/01 09:42:09;;;;;;;;;;;;;;;;;;110863;1276;8046;-77
2021/12/01 09:44:52;;;;;;;;;;;;;;;;;;111043;1279;8453;-77
2021/12/01 09:47:35;;;;;;;;;;;;;;;;;;110401;1278;9354;-79
2021/12/01 09:50:22;;;;;;;;;;;;;;;;;;110323;1277;9745;-76
2021/12/01 09:52:50;;;;;;;;;;;;;;;;;;110470;1277;8044;-78
2021/12/01 09:55:21;;;;;;;;;;;;;;;;;;110765;1275;9723;-77
2021/12/01 09:57:53;;;;;;;;;;;;;;;;;;110836;1275;8657;-77
2021/12/01 10:00:25;;;;;;;;;;;;;;;;;;110851;1275;9700;-79
2021/12/01 10:02:57;;;;;;;;;;;;;;;;;;110590;1276;9690;-76
2021/12/01 10:05:44;;;;;;;;;;;;;;;;;;110684;1276;8042;-78
2021/12/01 10:08:20;;;;;;;;;;;;;;;;;;110829;1276;9708;-77
2021/12/01 10:10:54;;;;;;;;;;;;;;;;;;110449;1276;8387;-75
2021/12/01 10:13:24;;;;;;;;;;;;;;;;;;110385;1277;8771;-75
2021/12/01 10:15:55;;;;;;;;;;;;;;;;;;110517;1276;8003;-75
2021/12/01 10:18:23;;;;;;;;;;;;;;;;;;110821;1275;9035;-75
2021/12/01 10:20:56;;;;;;;;;;;;;;;;;;110730;1275;9704;-78
2021/12/01 10:23:24;;;;;;;;;;;;;;;;;;110421;1277;9701;-74
2021/12/01 10:26:05;;;;;;;;;;;;;;;;;;110554;1275;9705;-75
2021/12/01 10:28:44;;;;;;;;;;;;;;;;;;110741;1277;9738;-76
2021/12/01 10:31:16;;;;;;;;;;;;;;;;;;110473;1274;8364;-76
2021/12/01 10:33:44;;;;;;;;;;;;;;;;;;110507;1277;8786;-77
2021/12/01 10:36:12;;;;;;;;;;;;;;;;;;110464;1276;9694;-77
2021/12/01 10:38:43;;;;;;;;;;;;;;;;;;110375;1278;8376;-80
2021/12/01 10:41:14;;;;;;;;;;;;;;;;;;110469;1277;8917;-76
2021/12/01 10:43:44;;;;;;;;;;;;;;;;;;110560;1277;8891;-76
2021/12/01 10:46:14;;;;;;;;;;;;;;;;;;110432;1278;8784;-76
2021/12/01 10:48:43;;;;;;;;;;;;;;;;;;110796;1276;9733;-77
2021/12/01 10:51:31;;;;;;;;;;;;;;;;;;110523;1276;8001;-76
2021/12/01 10:53:59;;;;;;;;;;;;;;;;;;110974;1276;8851;-77
2021/12/01 10:56:27;;;;;;;;;;;;;;;;;;110976;1274;9695;-76
2021/12/01 10:58:55;;;;;;;;;;;;;;;;;;110831;1276;8004;-78
2021/12/01 11:01:25;;;;;;;;;;;;;;;;;;110580;1277;8808;-78
2021/12/01 11:03:54;;;;;;;;;;;;;;;;;;110444;1277;9690;-79
2021/12/01 11:06:22;;;;;;;;;;;;;;;;;;110258;1277;8021;-81
2021/12/01 11:08:56;;;;;;;;;;;;;;;;;;110407;1273;9727;-74
2021/12/01 11:11:42;;;;;;;;;;;;;;;;;;110810;1274;8380;-76
2021/12/01 11:14:29;;;;;;;;;;;;;;;;;;110352;1276;9693;-75
2021/12/01 11:16:57;;;;;;;;;;;;;;;;;;110718;1274;8923;-76
2021/12/01 11:19:39;;;;;;;;;;;;;;;;;;110477;1274;9687;-76
2021/12/01 11:22:26;;;;;;;;;;;;;;;;;;110418;1276;8957;-75
2021/12/01 11:25:12;;;;;;;;;;;;;;;;;;110909;1274;8065;-75
2021/12/01 11:27:40;;;;;;;;;;;;;;;;;;110968;1274;10000;-75
2021/12/01 11:30:09;;;;;;;;;;;;;;;;;;110606;1274;8730;-76
2021/12/01 11:32:38;;;;;;;;;;;;;;;;;;110808;1274;8000;-76
2021/12/01 11:35:10;;;;;;;;;;;;;;;;;;110936;1274;8372;-78
2021/12/01 11:37:38;;;;;;;;;;;;;;;;;;110920;1274;8922;-77
2021/12/01 11:40:07;;;;;;;;;;;;;;;;;;110255;1276;9703;-77
2021/12/01 11:42:35;;;;;;;;;;;;;;;;;;110929;1275;8089;-76
2021/12/01 11:45:04;;;;;;;;;;;;;;;;;;110787;1275;8001;-76
2021/12/01 11:47:33;;;;;;;;;;;;;;;;;;110421;1279;9712;-77
2021/12/01 11:50:03;;;;;;;;;;;;;;;;;;110522;1276;9752;-77
2021/12/01 11:52:45;;;;;;;;;;;;;;;;;;110737;1274;7962;-80
2021/12/01 11:55:15;;;;;;;;;;;;;;;;;;110483;1274;9017;-77
2021/12/01 11:57:43;;;;;;;;;;;;;;;;;;110898;1274;9743;-76
2021/12/01 12:00:12;;;;;;;;;;;;;;;;;;110630;1276;8372;-77
2021/12/01 12:02:40;;;;;;;;;;;;;;;;;;110604;1276;9690;-76
2021/12/01 12:05:17;;;;;;;;;;;;;;;;;;110911;1276;8804;-77
2021/12/01 12:07:48;;;;;;;;;;;;;;;;;;110659;1275;8682;-77
2021/12/01 12:10:18;;;;;;;;;;;;;;;;;;110526;1277;8397;-77
2021/12/01 12:13:15;;;;;;;;;;;;;;;;;;110558;1277;8941;-77
2021/12/01 12:15:50;;;;;;;;;;;;;;;;;;110958;1276;9720;-77
2021/12/01 12:18:34;;;;;;;;;;;;;;;;;;110899;1276;8966;-76
2021/12/01 12:21:18;;;;;;;;;;;;;;;;;;110617;1276;8020;-77
2021/12/01 12:23:48;;;;;;;;;;;;;;;;;;110452;1276;8771;-76
2021/12/01 12:26:34;;;;;;;;;;;;;;;;;;110791;1276;8048;-78
2021/12/01 12:29:25;;;;;;;;;;;;;;;;;;110785;1275;8947;-78
2021/12/01 12:32:17;;;;;;;;;;;;;;;;;;110294;1277;8769;-80
2021/12/01 12:34:55;;;;;;;;;;;;;;;;;;110282;1277;7982;-76
2021/12/01 12:37:25;;;;;;;;;;;;;;;;;;110783;1276;9711;-77
2021/12/01 12:39:55;;;;;;;;;;;;;;;;;;110667;1273;301262;-78
2021/12/01 12:42:57;;;;;;;;;;;;;;;;;;110445;1276;9690;-77
2021/12/01 12:45:28;;;;;;;;;;;;;;;;;;110546;1276;9692;-77
2021/12/01 12:47:56;;;;;;;;;;;;;;;;;;110812;1276;8778;-76
2021/12/01 12:50:28;;;;;;;;;;;;;;;;;;110921;1275;8376;-81
2021/12/01 12:53:07;;;;;;;;;;;;;;;;;;110311;1274;8891;-76
2021/12/01 12:55:37;;;;;;;;;;;;;;;;;;110459;1276;8145;-75
2021/12/01 12:58:22;;;;;;;;;;;;;;;;;;110949;1276;8364;-76
2021/12/01 13:00:59;;;;;;;;;;;;;;;;;;110463;1276;9797;-77
2021/12/01 13:03:32;;;;;;;;;;;;;;;;;;110688;1276;8767;-78
2021/12/01 13:06:08;;;;;;;;;;;;;;;;;;110966;1275;9717;-78
2021/12/01 13:08:41;;;;;;;;;;;;;;;;;;110942;1276;8786;-76
2021/12/01 13:11:15;;;;;;;;;;;;;;;;;;110930;1276;9691;-76
2021/12/01 13:13:43;;;;;;;;;;;;;;;;;;110960;1274;8056;-77
2021/12/01 13:16:15;;;;;;;;;;;;;;;;;;110878;1276;8947;-78
2021/12/01 13:18:45;;;;;;;;;;;;;;;;;;110764;1275;9694;-78
2021/12/01 13:21:23;;;;;;;;;;;;;;;;;;110791;1277;7979;-78
2021/12/01 13:23:56;;;;;;;;;;;;;;;;;;110798;1277;8857;-78
2021/12/01 13:26:31;;;;;;;;;;;;;;;;;;110575;1276;9694;-78
2021/12/01 13:29:12;;;;;;;;;;;;;;;;;;110913;1273;8863;-77
2021/12/01 13:31:57;;;;;;;;;;;;;;;;;;110600;1276;8771;-76
2021/12/01 13:34:34;;;;;;;;;;;;;;;;;;110960;1274;9700;-77
2021/12/01 13:37:11;;;;;;;;;;;;;;;;;;110928;1276;8371;-77
2021/12/01 13:39:40;;;;;;;;;;;;;;;;;;110784;1277;9709;-77
2021/12/01 13:42:15;;;;;;;;;;;;;;;;;;110497;1277;9395;-76
2021/12/01 13:44:45;;;;;;;;;;;;;;;;;;110814;1277;8364;-74
2021/12/01 13:47:17;;;;;;;;;;;;;;;;;;110807;1275;8785;-76
2021/12/01 13:49:50;;;;;;;;;;;;;;;;;;110963;1274;9717;-80
2021/12/01 13:52:29;;;;;;;;;;;;;;;;;;110792;1276;8784;-78
2021/12/01 13:55:21;;;;;;;;;;;;;;;;;;110939;1274;8781;-76
2021/12/01 13:57:55;;;;;;;;;;;;;;;;;;110430;1277;8860;-75
2021/12/01 14:00:41;;;;;;;;;;;;;;;;;;110808;1276;9693;-77
2021/12/01 14:03:12;;;;;;;;;;;;;;;;;;110941;1276;8034;-74
2021/12/01 14:05:45;;;;;;;;;;;;;;;;;;111080;1274;9700;-75
2021/12/01 14:08:16;;;;;;;;;;;;;;;;;;111077;1275;9687;-76
2021/12/01 14:10:49;;;;;;;;;;;;;;;;;;110978;1276;9701;-78
2021/12/01 14:13:21;;;;;;;;;;;;;;;;;;110716;1277;9687;-74
2021/12/01 14:15:55;;;;;;;;;;;;;;;;;;110803;1277;9707;-74
2021/12/01 14:18:24;;;;;;;;;;;;;;;;;;110803;1277;7996;-76
2021/12/01 14:21:12;;;;;;;;;;;;;;;;;;110825;1275;8771;-77
2021/12/01 14:23:51;;;;;;;;;;;;;;;;;;110530;1276;8232;-76
2021/12/01 14:26:29;;;;;;;;;;;;;;;;;;110430;1278;9691;-76
2021/12/01 14:28:59;;;;;;;;;;;;;;;;;;110487;1276;8943;-75
2021/12/01 14:31:28;;;;;;;;;;;;;;;;;;110818;1276;9704;-76
2021/12/01 14:34:02;;;;;;;;;;;;;;;;;;110461;1279;7954;-76
2021/12/01 14:36:30;;;;;;;;;;;;;;;;;;110958;1276;9698;-75
2021/12/01 14:38:59;;;;;;;;;;;;;;;;;;110875;1274;9386;-77
2021/12/01 14:41:31;;;;;;;;;;;;;;;;;;110849;1276;8400;-76
2021/12/01 14:44:02;;;;;;;;;;;;;;;;;;110681;1276;8002;-76
2021/12/01 14:46:31;;;;;;;;;;;;;;;;;;110443;1278;8966;-76
2021/12/01 14:49:05;;;;;;;;;;;;;;;;;;110504;1277;8011;-76
2021/12/01 14:51:35;;;;;;;;;;;;;;;;;;110798;1273;8770;-77
2021/12/01 14:54:25;;;;;;;;;;;;;;;;;;110884;1274;9712;-77
2021/12/01 14:56:58;;;;;;;;;;;;;;;;;;110878;1274;8923;-79
2021/12/01 14:59:26;;;;;;;;;;;;;;;;;;110922;1274;10168;-78
2021/12/01 15:02:09;;;;;;;;;;;;;;;;;;110836;1275;8396;-76
2021/12/01 15:04:37;;;;;;;;;;;;;;;;;;110765;1276;8203;-77
2021/12/01 15:07:12;;;;;;;;;;;;;;;;;;110871;1275;9226;-75
2021/12/01 15:09:44;;;;;;;;;;;;;;;;;;110992;1276;8129;-78
2021/12/01 15:12:32;;;;;;;;;;;;;;;;;;110488;1276;8870;-76
2021/12/01 15:15:19;;;;;;;;;;;;;;;;;;110937;1272;9687;-78
2021/12/01 15:18:02;;;;;;;;;;;;;;;;;;110798;1277;9209;-81
2021/12/01 15:20:31;;;;;;;;;;;;;;;;;;110779;1277;7995;-73
2021/12/01 15:23:07;;;;;;;;;;;;;;;;;;110782;1277;8819;-78
2021/12/01 15:25:38;;;;;;;;;;;;;;;;;;110480;1275;9705;-76
2021/12/01 15:28:09;;;;;;;;;;;;;;;;;;110773;1277;8867;-76
2021/12/01 15:30:39;;;;;;;;;;;;;;;;;;110461;1279;9702;-76
2021/12/01 15:33:10;;;;;;;;;;;;;;;;;;110777;1277;8372;-76
2021/12/01 15:35:38;;;;;;;;;;;;;;;;;;110564;1277;9698;-73
2021/12/01 15:38:06;;;;;;;;;;;;;;;;;;110806;1277;9702;-75
2021/12/01 15:40:34;;;;;;;;;;;;;;;;;;110789;1276;7987;-76
2021/12/01 15:43:02;;;;;;;;;;;;;;;;;;110836;1276;8974;-76
2021/12/01 15:45:34;;;;;;;;;;;;;;;;;;110787;1277;8361;-74
2021/12/01 15:48:04;;;;;;;;;;;;;;;;;;110801;1277;9717;-75
2021/12/01 15:50:34;;;;;;;;;;;;;;;;;;110791;1275;8010;-76
2021/12/01 15:53:03;;;;;;;;;;;;;;;;;;110943;1275;8785;-75
2021/12/01 15:55:32;;;;;;;;;;;;;;;;;;110966;1275;9708;-75
2021/12/01 15:58:01;;;;;;;;;;;;;;;;;;110946;1276;8956;-75
2021/12/01 16:00:30;;;;;;;;;;;;;;;;;;110964;1276;9701;-75
2021/12/01 16:02:58;;;;;;;;;;;;;;;;;;110945;1275;9686;-75
2021/12/01 16:05:27;;;;;;;;;;;;;;;;;;110969;1275;8720;-75
2021/12/01 16:08:02;;;;;;;;;;;;;;;;;;110922;1275;9693;-75
2021/12/01 16:10:31;;;;;;;;;;;;;;;;;;110962;1276;9717;-75
2021/12/01 16:13:02;;;;;;;;;;;;;;;;;;110924;1276;8055;-76
2021/12/01 16:15:31;;;;;;;;;;;;;;;;;;110970;1275;9612;-74
2021/12/01 16:18:01;;;;;;;;;;;;;;;;;;110838;1276;7977;-77
2021/12/01 16:20:30;;;;;;;;;;;;;;;;;;110951;1275;9688;-75
2021/12/01 16:22:58;;;;;;;;;;;;;;;;;;110949;1274;8010;-76
2021/12/01 16:25:35;;;;;;;;;;;;;;;;;;110974;1276;9706;-76
2021/12/01 16:28:03;;;;;;;;;;;;;;;;;;110494;1276;7953;-76
2021/12/01 16:30:31;;;;;;;;;;;;;;;;;;110979;1276;8956;-76
2021/12/01 16:33:02;;;;;;;;;;;;;;;;;;110992;1276;8373;-76
2021/12/01 16:35:32;;;;;;;;;;;;;;;;;;110959;1276;8790;-76
2021/12/01 16:38:03;;;;;;;;;;;;;;;;;;110960;1276;8814;-76
2021/12/01 16:40:32;;;;;;;;;;;;;;;;;;110967;1274;8859;-76
2021/12/01 16:43:02;;;;;;;;;;;;;;;;;;110792;1276;9689;-76
2021/12/01 16:45:30;;;;;;;;;;;;;;;;;;110983;1276;8096;-76
2021/12/01 16:47:58;;;;;;;;;;;;;;;;;;110800;1277;8327;-76
2021/12/01 16:50:30;;;;;;;;;;;;;;;;;;110972;1276;9679;-75
2021/12/01 16:52:58;;;;;;;;;;;;;;;;;;110536;1276;8360;-75
2021/12/01 16:55:26;;;;;;;;;;;;;;;;;;110491;1277;9705;-76
2021/12/01 16:57:55;;;;;;;;;;;;;;;;;;110587;1276;7998;-76
2021/12/01 17:00:28;;;;;;;;;;;;;;;;;;110775;1276;9721;-75
2021/12/01 17:02:56;;;;;;;;;;;;;;;;;;110549;1277;9696;-75
2021/12/01 17:05:26;;;;;;;;;;;;;;;;;;110473;1279;7975;-75
2021/12/01 17:10:23;;;;;;;;;;;;;;;;;;110496;1276;9690;-74
2021/12/01 17:12:51;;;;;;;;;;;;;;;;;;110781;1277;8370;-75
2021/12/01 17:15:19;;;;;;;;;;;;;;;;;;110804;1277;8970;-75
2021/12/01 17:17:47;;;;;;;;;;;;;;;;;;110797;1275;8371;-75
2021/12/01 17:20:16;;;;;;;;;;;;;;;;;;110782;1276;8364;-76
2021/12/01 17:22:45;;;;;;;;;;;;;;;;;;110459;1277;8941;-76